createdAt,value
2022-12-13T00:00:11.604Z,100
2022-12-13T00:01:26.018Z,100
2022-12-13T00:02:40.337Z,100
2022-12-13T00:03:54.629Z,100
2022-12-13T00:05:08.903Z,100
2022-12-13T00:06:23.324Z,100
2022-12-13T00:07:37.642Z,100
2022-12-13T00:08:51.919Z,100
2022-12-13T00:10:06.209Z,100
2022-12-13T00:11:20.610Z,100
2022-12-13T00:12:34.932Z,100
2022-12-13T00:13:49.214Z,100
2022-12-13T00:15:03.501Z,100
2022-12-13T00:16:17.913Z,100
2022-12-13T00:17:32.229Z,100
2022-12-13T00:18:46.511Z,100
2022-12-13T00:20:00.804Z,100
2022-12-13T00:21:15.215Z,100
2022-12-13T00:22:29.529Z,100
2022-12-13T00:23:43.810Z,100
2022-12-13T00:24:58.088Z,100
2022-12-13T00:26:12.506Z,100
2022-12-13T00:27:26.824Z,100
2022-12-13T00:28:41.104Z,100
2022-12-13T00:29:55.398Z,100
2022-12-13T00:31:09.801Z,100
2022-12-13T00:33:38.404Z,100
2022-12-13T00:34:52.690Z,100
2022-12-13T00:36:07.157Z,100
2022-12-13T00:37:21.484Z,100
2022-12-13T00:38:35.841Z,100
2022-12-13T00:39:49.234Z,100
2022-12-13T00:41:03.644Z,100
2022-12-13T00:42:17.979Z,100
2022-12-13T00:43:31.341Z,100
2022-12-13T00:44:45.609Z,100
2022-12-13T00:46:00.019Z,100
2022-12-13T00:47:14.353Z,100
2022-12-13T00:48:28.633Z,100
2022-12-13T00:49:42.912Z,100
2022-12-13T00:50:57.331Z,100
2022-12-13T00:52:11.658Z,100
2022-12-13T00:53:25.939Z,100
2022-12-13T00:54:40.208Z,100
2022-12-13T00:55:54.611Z,100
2022-12-13T00:57:08.937Z,100
2022-12-13T00:58:23.228Z,100
2022-12-13T00:59:37.502Z,100
2022-12-13T01:00:51.916Z,100
2022-12-13T01:02:06.248Z,100
2022-12-13T01:03:20.520Z,100
2022-12-13T01:04:34.795Z,100
2022-12-13T01:05:49.216Z,100
2022-12-13T01:07:03.537Z,100
2022-12-13T01:08:17.813Z,99.9
2022-12-13T01:09:32.094Z,100
2022-12-13T01:10:46.514Z,99.9
2022-12-13T01:12:00.837Z,100
2022-12-13T01:13:15.113Z,100
2022-12-13T01:14:29.448Z,100
2022-12-13T01:15:43.865Z,100
2022-12-13T01:16:58.207Z,100
2022-12-13T01:18:12.539Z,100
2022-12-13T01:19:25.896Z,100
2022-12-13T01:20:40.307Z,100
2022-12-13T01:21:54.634Z,100
2022-12-13T01:23:08.904Z,100
2022-12-13T01:24:23.195Z,100
2022-12-13T01:25:37.602Z,100
2022-12-13T01:26:51.913Z,100
2022-12-13T01:28:06.144Z,100
2022-12-13T01:29:20.476Z,100
2022-12-13T01:30:34.757Z,100
2022-12-13T01:31:49.157Z,100
2022-12-13T01:33:03.489Z,100
2022-12-13T01:34:17.774Z,100
2022-12-13T01:35:32.046Z,100
2022-12-13T01:36:46.471Z,100
2022-12-13T01:38:00.787Z,100
2022-12-13T01:39:15.069Z,100
2022-12-13T01:41:43.752Z,100
2022-12-13T01:42:58.095Z,100
2022-12-13T01:44:12.362Z,100
2022-12-13T01:45:26.641Z,100
2022-12-13T01:46:41.058Z,100
2022-12-13T01:47:55.377Z,100
2022-12-13T01:49:09.670Z,100
2022-12-13T01:50:24.005Z,100
2022-12-13T01:51:38.410Z,99.9
2022-12-13T01:52:52.744Z,100
2022-12-13T01:54:06.110Z,100
2022-12-13T01:55:20.393Z,100
2022-12-13T01:56:34.789Z,100
2022-12-13T01:57:49.131Z,100
2022-12-13T01:59:03.400Z,100
2022-12-13T02:00:17.814Z,100
2022-12-13T02:01:32.222Z,100
2022-12-13T02:04:00.826Z,100
2022-12-13T02:05:15.098Z,100
2022-12-13T02:06:29.517Z,100
2022-12-13T02:07:43.841Z,100
2022-12-13T02:08:58.113Z,100
2022-12-13T02:10:12.399Z,100
2022-12-13T02:11:26.810Z,100
2022-12-13T02:12:41.134Z,100
2022-12-13T02:13:55.412Z,100
2022-12-13T02:15:09.697Z,100
2022-12-13T02:16:24.115Z,100
2022-12-13T02:17:38.439Z,100
2022-12-13T02:18:52.707Z,100
2022-12-13T02:20:06.999Z,100
2022-12-13T02:21:21.396Z,100
2022-12-13T02:22:35.729Z,100
2022-12-13T02:23:50.017Z,100
2022-12-13T02:25:04.286Z,100
2022-12-13T02:26:18.707Z,100
2022-12-13T02:27:33.018Z,100
2022-12-13T02:28:47.302Z,100
2022-12-13T02:30:01.597Z,100
2022-12-13T02:31:15.996Z,100
2022-12-13T02:32:30.325Z,100
2022-12-13T02:33:44.603Z,100
2022-12-13T02:34:58.895Z,100
2022-12-13T02:36:13.302Z,100
2022-12-13T02:37:27.619Z,100
2022-12-13T02:38:41.908Z,100
2022-12-13T02:39:56.183Z,100
2022-12-13T02:41:10.592Z,100
2022-12-13T02:42:24.911Z,100
2022-12-13T02:43:39.206Z,100
2022-12-13T02:44:53.475Z,100
2022-12-13T02:46:07.947Z,100
2022-12-13T02:48:36.620Z,100
2022-12-13T02:49:50.032Z,100
2022-12-13T02:51:04.431Z,100
2022-12-13T02:52:18.775Z,100
2022-12-13T02:53:32.174Z,100
2022-12-13T02:54:46.497Z,100
2022-12-13T02:56:00.908Z,100
2022-12-13T02:57:15.259Z,100
2022-12-13T02:58:28.597Z,100
2022-12-13T02:59:42.886Z,100
2022-12-13T03:00:57.282Z,100
2022-12-13T03:02:11.623Z,100
2022-12-13T03:03:25.896Z,100
2022-12-13T03:04:40.189Z,100
2022-12-13T03:05:54.592Z,100
2022-12-13T03:07:08.923Z,100
2022-12-13T03:08:23.194Z,100
2022-12-13T03:09:37.474Z,100
2022-12-13T03:10:51.888Z,100
2022-12-13T03:12:06.220Z,100
2022-12-13T03:13:20.489Z,100
2022-12-13T03:14:34.784Z,100
2022-12-13T03:15:49.184Z,100
2022-12-13T03:17:03.516Z,100
2022-12-13T03:18:17.785Z,99.8
2022-12-13T03:19:32.063Z,99.9
2022-12-13T03:20:46.486Z,100
2022-12-13T03:22:00.813Z,100
2022-12-13T03:23:15.092Z,100
2022-12-13T03:24:29.368Z,100
2022-12-13T03:25:43.771Z,100
2022-12-13T03:26:58.106Z,100
2022-12-13T03:28:12.385Z,100
2022-12-13T03:29:26.731Z,100
2022-12-13T03:30:41.138Z,100
2022-12-13T03:31:55.460Z,100
2022-12-13T03:33:08.822Z,100
2022-12-13T03:34:23.101Z,100
2022-12-13T03:35:37.516Z,100
2022-12-13T03:36:51.827Z,100
2022-12-13T03:38:06.122Z,100
2022-12-13T03:40:34.810Z,99.9
2022-12-13T03:41:49.141Z,99.9
2022-12-13T03:43:03.416Z,99.9
2022-12-13T03:44:17.687Z,99.9
2022-12-13T03:45:32.113Z,100
2022-12-13T03:46:46.429Z,100
2022-12-13T03:48:00.703Z,100
2022-12-13T03:49:15.000Z,100
2022-12-13T03:50:29.408Z,100
2022-12-13T03:51:43.727Z,100
2022-12-13T03:52:58.013Z,100
2022-12-13T03:54:12.294Z,100
2022-12-13T03:55:26.701Z,100
2022-12-13T03:56:41.021Z,100
2022-12-13T03:57:55.300Z,100
2022-12-13T03:59:09.580Z,100
2022-12-13T04:00:24.001Z,100
2022-12-13T04:01:38.316Z,100
2022-12-13T04:02:52.611Z,100
2022-12-13T04:04:06.953Z,100
2022-12-13T04:05:21.354Z,100
2022-12-13T04:06:35.696Z,100
2022-12-13T04:07:49.030Z,100
2022-12-13T04:09:03.314Z,100
2022-12-13T04:10:17.736Z,100
2022-12-13T04:11:32.049Z,100
2022-12-13T04:12:46.339Z,100
2022-12-13T04:14:00.626Z,100
2022-12-13T04:15:15.022Z,99.8
2022-12-13T04:16:29.359Z,99.8
2022-12-13T04:17:43.638Z,99.8
2022-12-13T04:18:57.921Z,99.8
2022-12-13T04:20:12.323Z,99.7
2022-12-13T04:21:26.639Z,99.6
2022-12-13T04:22:40.935Z,99.7
2022-12-13T04:23:55.217Z,99.8
2022-12-13T04:25:09.613Z,99.8
2022-12-13T04:26:23.940Z,99.8
2022-12-13T04:28:52.514Z,100
2022-12-13T04:30:06.916Z,100
2022-12-13T04:33:49.768Z,99.6
2022-12-13T04:35:04.195Z,99.6
2022-12-13T04:36:18.425Z,99.7
2022-12-13T04:37:32.716Z,99.7
2022-12-13T04:38:47.044Z,99.7
2022-12-13T04:40:01.466Z,99.7
2022-12-13T04:41:15.787Z,99.8
2022-12-13T04:42:29.144Z,99.8
2022-12-13T04:43:43.435Z,99.8
2022-12-13T04:44:57.846Z,99.8
2022-12-13T04:46:12.162Z,99.8
2022-12-13T04:47:26.446Z,99.8
2022-12-13T04:48:40.733Z,99.8
2022-12-13T04:49:55.082Z,99.8
2022-12-13T04:51:09.397Z,99.8
2022-12-13T04:52:23.684Z,99.8
2022-12-13T04:53:37.971Z,99.8
2022-12-13T04:54:52.386Z,99.8
2022-12-13T04:56:06.711Z,99.8
2022-12-13T04:57:20.989Z,99.8
2022-12-13T04:58:35.260Z,99.8
2022-12-13T04:59:49.668Z,99.8
2022-12-13T05:01:03.991Z,99.8
2022-12-13T05:02:18.223Z,99.8
2022-12-13T05:03:32.560Z,99.7
2022-12-13T05:04:46.840Z,99.7
2022-12-13T05:06:01.254Z,99.7
2022-12-13T05:07:15.566Z,99.8
2022-12-13T05:08:29.846Z,99.8
2022-12-13T05:09:44.124Z,99.7
2022-12-13T05:10:58.538Z,99.8
2022-12-13T05:12:12.866Z,99.9
2022-12-13T05:13:27.204Z,100
2022-12-13T05:14:40.601Z,100
2022-12-13T05:15:54.932Z,100
2022-12-13T05:17:08.279Z,99.9
2022-12-13T05:18:22.561Z,99.9
2022-12-13T05:19:36.985Z,99.8
2022-12-13T05:20:51.309Z,99.8
2022-12-13T05:22:05.575Z,99.7
2022-12-13T05:23:19.867Z,99.7
2022-12-13T05:24:34.270Z,99.7
2022-12-13T05:25:48.574Z,99.6
2022-12-13T05:27:02.861Z,99.5
2022-12-13T05:28:17.132Z,99.5
2022-12-13T05:29:31.544Z,99.5
2022-12-13T05:30:45.866Z,99.5
2022-12-13T05:32:00.146Z,99.5
2022-12-13T05:33:14.423Z,99.6
2022-12-13T05:34:28.850Z,99.7
2022-12-13T05:35:43.171Z,99.7
2022-12-13T05:36:57.443Z,99.6
2022-12-13T05:38:11.720Z,99.5
2022-12-13T05:39:26.128Z,99.5
2022-12-13T05:40:40.466Z,99.4
2022-12-13T05:41:54.744Z,99.5
2022-12-13T05:43:09.022Z,99.6
2022-12-13T05:44:23.431Z,99.6
2022-12-13T05:45:37.757Z,99.7
2022-12-13T05:46:52.049Z,99.8
2022-12-13T05:48:06.375Z,100
2022-12-13T05:49:20.786Z,100
2022-12-13T05:50:35.128Z,100
2022-12-13T05:51:48.539Z,100
2022-12-13T05:53:01.918Z,100
2022-12-13T05:54:16.272Z,100
2022-12-13T05:55:30.599Z,100
2022-12-13T05:56:43.948Z,100
2022-12-13T05:57:58.364Z,100
2022-12-13T05:59:12.687Z,99.9
2022-12-13T06:00:26.962Z,99.8
2022-12-13T06:01:41.240Z,99.7
2022-12-13T06:02:55.613Z,99.7
2022-12-13T06:04:09.914Z,99.7
2022-12-13T06:05:24.201Z,99.6
2022-12-13T06:06:38.471Z,99.6
2022-12-13T06:07:52.882Z,99.6
2022-12-13T06:09:07.130Z,99.7
2022-12-13T06:10:21.412Z,99.7
2022-12-13T06:11:35.738Z,99.7
2022-12-13T06:12:49.967Z,99.7
2022-12-13T06:14:04.330Z,99.7
2022-12-13T06:15:18.649Z,99.7
2022-12-13T06:16:32.941Z,99.7
2022-12-13T06:17:47.207Z,99.6
2022-12-13T06:19:01.571Z,99.6
2022-12-13T06:20:15.819Z,99.5
2022-12-13T06:22:44.282Z,99.4
2022-12-13T06:23:58.512Z,99.4
2022-12-13T06:25:12.819Z,99.6
2022-12-13T06:26:27.053Z,99.7
2022-12-13T06:27:41.337Z,99.8
2022-12-13T06:28:54.673Z,99.7
2022-12-13T06:30:08.991Z,99.5
2022-12-13T06:31:23.265Z,99.4
2022-12-13T06:32:36.556Z,99.3
2022-12-13T06:33:50.791Z,99.3
2022-12-13T06:35:05.091Z,99.3
2022-12-13T06:37:33.552Z,99.3
2022-12-13T06:38:47.790Z,99.2
2022-12-13T06:40:02.068Z,99.1
2022-12-13T06:41:16.484Z,99.1
2022-12-13T06:42:30.807Z,99.1
2022-12-13T06:43:45.097Z,99
2022-12-13T06:44:59.373Z,99.1
2022-12-13T06:46:13.781Z,99.1
2022-12-13T06:47:28.087Z,99
2022-12-13T06:48:42.303Z,99
2022-12-13T06:49:56.622Z,98.9
2022-12-13T06:51:10.915Z,98.8
2022-12-13T06:52:25.315Z,98.7
2022-12-13T06:53:39.556Z,98.7
2022-12-13T06:54:53.804Z,98.5
2022-12-13T06:56:08.012Z,98.5
2022-12-13T06:57:22.242Z,98.6
2022-12-13T06:58:36.547Z,98.7
2022-12-13T06:59:50.787Z,98.7
2022-12-13T07:01:05.013Z,98.7
2022-12-13T07:02:19.245Z,98.6
2022-12-13T07:03:33.528Z,98.5
2022-12-13T07:04:47.839Z,98.4
2022-12-13T07:06:02.124Z,98.5
2022-12-13T07:07:15.423Z,98.5
2022-12-13T07:08:29.654Z,98.6
2022-12-13T07:09:43.943Z,98.7
2022-12-13T07:10:58.189Z,98.6
2022-12-13T07:12:12.409Z,98.7
2022-12-13T07:13:26.670Z,98.6
2022-12-13T07:14:40.877Z,98.5
2022-12-13T07:15:55.176Z,98.4
2022-12-13T07:17:09.422Z,98.4
2022-12-13T07:18:23.634Z,98.4
2022-12-13T07:19:37.879Z,98.5
2022-12-13T07:20:52.104Z,98.5
2022-12-13T07:22:06.389Z,98.5
2022-12-13T07:23:20.648Z,98.4
2022-12-13T07:24:34.879Z,98.2
2022-12-13T07:25:49.097Z,98.1
2022-12-13T07:27:03.322Z,98
2022-12-13T07:28:17.617Z,97.9
2022-12-13T07:29:31.873Z,97.9
2022-12-13T07:30:46.089Z,97.8
2022-12-13T07:32:00.325Z,97.9
2022-12-13T07:33:14.544Z,98
2022-12-13T07:34:28.847Z,98
2022-12-13T07:35:43.106Z,97.9
2022-12-13T07:36:57.318Z,97.9
2022-12-13T07:38:11.613Z,97.9
2022-12-13T07:39:24.953Z,97.8
2022-12-13T07:40:39.226Z,97.8
2022-12-13T07:41:52.529Z,97.7
2022-12-13T07:43:06.758Z,97.8
2022-12-13T07:44:21.058Z,97.7
2022-12-13T07:45:35.289Z,97.7
2022-12-13T07:46:49.525Z,97.7
2022-12-13T07:48:03.751Z,97.7
2022-12-13T07:49:17.984Z,97.8
2022-12-13T07:50:32.274Z,97.9
2022-12-13T07:51:46.535Z,97.9
2022-12-13T07:53:00.757Z,98
2022-12-13T07:54:14.982Z,98.1
2022-12-13T07:55:29.210Z,97.9
2022-12-13T07:56:43.508Z,97.8
2022-12-13T07:57:57.750Z,97.5
2022-12-13T07:59:11.989Z,97.5
2022-12-13T08:00:26.213Z,97.5
2022-12-13T08:01:40.435Z,97.5
2022-12-13T08:02:54.745Z,97.5
2022-12-13T08:04:08.974Z,97.5
2022-12-13T08:05:23.210Z,97.7
2022-12-13T08:06:37.426Z,97.7
2022-12-13T08:07:51.661Z,97.7
2022-12-13T08:09:05.963Z,97.9
2022-12-13T08:10:20.200Z,97.9
2022-12-13T08:11:34.435Z,97.8
2022-12-13T08:12:48.714Z,97.8
2022-12-13T08:14:02.062Z,97.8
2022-12-13T08:15:16.333Z,97.6
2022-12-13T08:16:30.635Z,97.8
2022-12-13T08:17:43.930Z,97.8
2022-12-13T08:18:58.216Z,97.7
2022-12-13T08:20:12.459Z,97.6
2022-12-13T08:21:26.697Z,97.5
2022-12-13T08:22:40.930Z,97.4
2022-12-13T08:23:55.159Z,97.4
2022-12-13T08:25:09.444Z,97.3
2022-12-13T08:26:23.691Z,97.4
2022-12-13T08:27:37.916Z,97.6
2022-12-13T08:28:52.150Z,97.7
2022-12-13T08:31:20.668Z,97.5
2022-12-13T08:32:34.920Z,97.3
2022-12-13T08:33:49.142Z,97.2
2022-12-13T08:35:03.503Z,97
2022-12-13T08:36:17.718Z,96.7
2022-12-13T08:37:32.037Z,96.2
2022-12-13T08:38:46.264Z,95.6
2022-12-13T08:40:00.493Z,95.4
2022-12-13T08:41:14.717Z,95.4
2022-12-13T08:42:28.961Z,95
2022-12-13T08:43:43.244Z,94.3
2022-12-13T08:44:57.506Z,93.1
2022-12-13T08:46:11.726Z,92.6
2022-12-13T08:47:25.947Z,92.2
2022-12-13T08:48:40.170Z,91.7
2022-12-13T08:49:54.475Z,91.4
2022-12-13T08:51:08.729Z,91.5
2022-12-13T08:52:22.944Z,91.6
2022-12-13T08:54:51.419Z,91.5
2022-12-13T08:56:05.697Z,91.5
2022-12-13T08:57:19.946Z,91.3
2022-12-13T08:58:34.167Z,91
2022-12-13T08:59:48.410Z,90.7
2022-12-13T09:01:02.622Z,90.8
2022-12-13T09:02:16.928Z,91
2022-12-13T09:03:31.171Z,91.1
2022-12-13T09:04:45.402Z,91.5
2022-12-13T09:05:59.619Z,91.1
2022-12-13T09:07:13.861Z,90.4
2022-12-13T09:08:28.159Z,90.8
2022-12-13T09:09:42.407Z,90.3
2022-12-13T09:10:56.630Z,89.7
2022-12-13T09:12:10.857Z,88.9
2022-12-13T09:13:25.086Z,89
2022-12-13T09:14:39.382Z,88.6
2022-12-13T09:15:53.617Z,88.4
2022-12-13T09:17:07.854Z,87.9
2022-12-13T09:18:22.088Z,87.1
2022-12-13T09:20:50.678Z,85.9
2022-12-13T09:22:04.944Z,86.3
2022-12-13T09:23:18.251Z,85.9
2022-12-13T09:24:32.472Z,84.8
2022-12-13T09:25:46.783Z,84.8
2022-12-13T09:27:01.028Z,84.9
2022-12-13T09:28:15.250Z,84.5
2022-12-13T09:29:29.472Z,85.2
2022-12-13T09:30:43.000Z,85.2
2022-12-13T09:31:57.995Z,83.7
2022-12-13T09:33:12.250Z,83.9
2022-12-13T09:34:26.466Z,84.3
2022-12-13T09:35:40.698Z,83.2
2022-12-13T09:36:54.935Z,82.6
2022-12-13T09:38:09.230Z,81.2
2022-12-13T09:39:23.466Z,81
2022-12-13T09:40:37.697Z,79.9
2022-12-13T09:41:51.920Z,79
2022-12-13T09:43:06.161Z,78.5
2022-12-13T09:44:20.461Z,77.2
2022-12-13T09:45:34.702Z,74.7
2022-12-13T09:46:48.931Z,75.3
2022-12-13T09:48:03.159Z,75.9
2022-12-13T09:49:17.378Z,76.8
2022-12-13T09:50:31.684Z,76.2
2022-12-13T09:51:45.915Z,76
2022-12-13T09:53:00.154Z,75.8
2022-12-13T09:54:14.433Z,76.4
2022-12-13T09:55:27.730Z,75.1
2022-12-13T09:56:41.963Z,75.1
2022-12-13T09:57:56.195Z,74.8
2022-12-13T09:59:10.425Z,73.7
2022-12-13T10:00:24.659Z,74.3
2022-12-13T10:01:38.960Z,75.2
2022-12-13T10:02:53.192Z,75.3
2022-12-13T10:04:07.434Z,75.2
2022-12-13T10:05:21.646Z,75.6
2022-12-13T10:06:35.886Z,74.9
2022-12-13T10:07:50.187Z,75.6
2022-12-13T10:09:04.428Z,74.5
2022-12-13T10:10:18.657Z,74.7
2022-12-13T10:11:32.878Z,73.4
2022-12-13T10:12:47.096Z,73.6
2022-12-13T10:14:01.411Z,74.7
2022-12-13T10:15:15.656Z,75.2
2022-12-13T10:16:29.872Z,73.4
2022-12-13T10:18:58.320Z,69.3
2022-12-13T10:20:12.639Z,69.2
2022-12-13T10:21:26.878Z,69.9
2022-12-13T10:22:41.097Z,71.5
2022-12-13T10:23:55.318Z,72.3
2022-12-13T10:25:09.552Z,73.4
2022-12-13T10:26:23.921Z,74.6
2022-12-13T10:27:38.186Z,75.2
2022-12-13T10:28:51.539Z,74.4
2022-12-13T10:30:04.887Z,73.9
2022-12-13T10:31:19.170Z,72.5
2022-12-13T10:32:32.510Z,72.8
2022-12-13T10:33:45.848Z,73
2022-12-13T10:35:00.131Z,70.6
2022-12-13T10:36:14.424Z,69.9
2022-12-13T10:37:27.766Z,69.4
2022-12-13T10:38:42.058Z,68.3
2022-12-13T10:39:56.335Z,66.8
2022-12-13T10:41:09.641Z,68
2022-12-13T10:42:23.863Z,68
2022-12-13T10:43:38.162Z,67.3
2022-12-13T10:44:52.407Z,69.9
2022-12-13T10:46:06.639Z,71.5
2022-12-13T10:47:20.865Z,73
2022-12-13T10:48:35.089Z,73.1
2022-12-13T10:49:49.380Z,73.3
2022-12-13T10:51:03.618Z,72.4
2022-12-13T10:52:17.846Z,72.6
2022-12-13T10:53:32.088Z,73.2
2022-12-13T10:54:46.309Z,73.1
2022-12-13T10:56:00.608Z,72.7
2022-12-13T10:57:14.841Z,73.2
2022-12-13T10:58:29.069Z,71.9
2022-12-13T10:59:43.304Z,71.8
2022-12-13T11:00:57.539Z,72.5
2022-12-13T11:02:11.831Z,73.1
2022-12-13T11:03:26.065Z,74.1
2022-12-13T11:04:40.294Z,73.3
2022-12-13T11:05:54.517Z,72.6
2022-12-13T11:07:08.761Z,70.9
2022-12-13T11:08:23.056Z,70.5
2022-12-13T11:09:37.285Z,69.7
2022-12-13T11:10:51.516Z,71.3
2022-12-13T11:12:05.812Z,70.7
2022-12-13T11:13:19.136Z,70.7
2022-12-13T11:14:33.416Z,70.2
2022-12-13T11:15:46.715Z,69.6
2022-12-13T11:17:00.954Z,70
2022-12-13T11:18:15.244Z,71.2
2022-12-13T11:19:29.485Z,71.8
2022-12-13T11:20:43.717Z,72.6
2022-12-13T11:21:57.947Z,72.4
2022-12-13T11:23:12.159Z,72.2
2022-12-13T11:24:26.465Z,71.5
2022-12-13T11:25:40.709Z,72.4
2022-12-13T11:26:54.928Z,71.7
2022-12-13T11:28:09.168Z,71.2
2022-12-13T11:30:37.685Z,70.9
2022-12-13T11:31:51.939Z,68.7
2022-12-13T11:33:06.162Z,69.2
2022-12-13T11:34:20.380Z,67.9
2022-12-13T11:35:34.603Z,66.1
2022-12-13T11:36:48.917Z,64.1
2022-12-13T11:38:03.149Z,63.1
2022-12-13T11:39:17.386Z,62.7
2022-12-13T11:40:31.602Z,65.1
2022-12-13T11:41:45.837Z,63.8
2022-12-13T11:43:00.139Z,62.5
2022-12-13T11:44:14.377Z,61.5
2022-12-13T11:45:28.605Z,61.3
2022-12-13T11:46:42.884Z,62.3
2022-12-13T11:47:56.175Z,62
2022-12-13T11:49:10.416Z,63.3
2022-12-13T11:50:24.641Z,62.1
2022-12-13T11:51:38.881Z,62.5
2022-12-13T11:52:53.094Z,63.8
2022-12-13T11:54:07.412Z,62.1
2022-12-13T11:55:21.644Z,62.7
2022-12-13T11:57:50.106Z,61.8
2022-12-13T11:59:04.330Z,61.1
2022-12-13T12:00:18.621Z,62.1
2022-12-13T12:01:32.875Z,62.6
2022-12-13T12:02:47.094Z,64.4
2022-12-13T12:04:01.314Z,64.7
2022-12-13T12:05:15.552Z,63.6
2022-12-13T12:06:29.847Z,63.9
2022-12-13T12:07:44.098Z,65.2
2022-12-13T12:08:58.323Z,66.3
2022-12-13T12:10:12.544Z,68.4
2022-12-13T12:11:26.765Z,71.8
2022-12-13T12:12:41.073Z,74.6
2022-12-13T12:13:55.321Z,76.1
2022-12-13T12:15:09.545Z,76.6
2022-12-13T12:16:23.755Z,78.2
2022-12-13T12:17:37.982Z,79.5
2022-12-13T12:18:52.360Z,80.3
2022-12-13T12:20:06.640Z,82.4
2022-12-13T12:21:19.972Z,82.3
2022-12-13T12:22:34.254Z,82.8
2022-12-13T12:23:48.577Z,82.8
2022-12-13T12:25:02.828Z,82.7
2022-12-13T12:26:17.117Z,83.4
2022-12-13T12:27:31.405Z,82.8
2022-12-13T12:28:44.000Z,83.8
2022-12-13T12:29:59.155Z,84.2
2022-12-13T12:31:13.445Z,83.3
2022-12-13T12:32:26.749Z,83.4
2022-12-13T12:33:41.052Z,83.3
2022-12-13T12:34:55.291Z,82.8
2022-12-13T12:36:09.516Z,83
2022-12-13T12:37:23.744Z,83.5
2022-12-13T12:38:37.976Z,83.1
2022-12-13T12:39:52.268Z,83
2022-12-13T12:41:06.518Z,83.4
2022-12-13T12:42:20.731Z,83.5
2022-12-13T12:43:34.961Z,84
2022-12-13T12:46:03.484Z,83.9
2022-12-13T12:47:17.722Z,84.1
2022-12-13T12:48:31.954Z,84.1
2022-12-13T12:49:46.176Z,84.1
2022-12-13T12:51:00.410Z,84.3
2022-12-13T12:52:14.711Z,84.1
2022-12-13T12:53:28.952Z,84
2022-12-13T12:54:43.182Z,84.8
2022-12-13T12:55:57.400Z,84.1
2022-12-13T12:57:11.642Z,83.5
2022-12-13T12:58:25.934Z,83
2022-12-13T13:00:54.396Z,82.8
2022-12-13T13:02:08.636Z,82.5
2022-12-13T13:03:22.918Z,82.7
2022-12-13T13:04:37.210Z,82.7
2022-12-13T13:05:51.502Z,82.9
2022-12-13T13:07:04.784Z,83.2
2022-12-13T13:08:19.019Z,83.4
2022-12-13T13:09:33.317Z,83.2
2022-12-13T13:10:47.562Z,82.6
2022-12-13T13:12:01.793Z,82.6
2022-12-13T13:13:16.023Z,82.3
2022-12-13T13:15:44.543Z,82.6
2022-12-13T13:16:58.794Z,82.5
2022-12-13T13:18:13.007Z,82.8
2022-12-13T13:19:27.240Z,82.8
2022-12-13T13:20:41.477Z,82.9
2022-12-13T13:21:55.771Z,82
2022-12-13T13:23:10.008Z,81.7
2022-12-13T13:24:24.229Z,82.1
2022-12-13T13:25:38.474Z,81.6
2022-12-13T13:26:52.684Z,81.3
2022-12-13T13:28:06.989Z,80.7
2022-12-13T13:29:21.233Z,80.3
2022-12-13T13:30:35.468Z,80.8
2022-12-13T13:31:49.691Z,81.2
2022-12-13T13:33:03.924Z,80.8
2022-12-13T13:34:18.223Z,80.6
2022-12-13T13:35:32.454Z,80.5
2022-12-13T13:36:46.683Z,80
2022-12-13T13:38:00.975Z,80.3
2022-12-13T13:39:14.317Z,79.8
2022-12-13T13:40:28.604Z,79.2
2022-12-13T13:41:42.876Z,78.5
2022-12-13T13:42:56.168Z,78.2
2022-12-13T13:44:10.476Z,77.4
2022-12-13T13:45:24.726Z,77.4
2022-12-13T13:46:38.950Z,77.8
2022-12-13T13:47:53.181Z,78.1
2022-12-13T13:50:21.706Z,77.1
2022-12-13T13:51:35.952Z,76.4
2022-12-13T13:52:50.177Z,75.5
2022-12-13T13:54:04.390Z,75.7
2022-12-13T13:55:18.632Z,76.5
2022-12-13T13:56:32.914Z,77.7
2022-12-13T13:57:47.169Z,79.3
2022-12-13T13:59:01.395Z,80.7
2022-12-13T14:00:15.619Z,80.8
2022-12-13T14:01:29.840Z,80.9
2022-12-13T14:02:44.138Z,81
2022-12-13T14:03:58.396Z,81.8
2022-12-13T14:06:26.832Z,83.5
2022-12-13T14:07:41.062Z,84
2022-12-13T14:08:55.361Z,84.5
2022-12-13T14:10:09.603Z,84.6
2022-12-13T14:11:23.840Z,84.9
2022-12-13T14:12:38.057Z,85.3
2022-12-13T14:13:52.346Z,85.5
2022-12-13T14:15:06.661Z,85.6
2022-12-13T14:16:20.928Z,85.7
2022-12-13T14:17:34.231Z,85.9
2022-12-13T14:18:48.469Z,86.2
2022-12-13T14:20:02.765Z,86.2
2022-12-13T14:21:17.008Z,86.3
2022-12-13T14:22:31.221Z,86.3
2022-12-13T14:23:45.463Z,86.5
2022-12-13T14:24:59.688Z,86.5
2022-12-13T14:26:13.987Z,86.5
2022-12-13T14:27:28.236Z,86.5
2022-12-13T14:28:42.465Z,86.4
2022-12-13T14:29:56.693Z,86.4
2022-12-13T14:31:11.043Z,86.6
2022-12-13T14:32:25.329Z,86.7
2022-12-13T14:33:39.576Z,86.7
2022-12-13T14:34:53.810Z,86.9
2022-12-13T14:36:08.034Z,87.2
2022-12-13T14:37:22.267Z,87.4
2022-12-13T14:38:36.561Z,87.6
2022-12-13T14:39:50.810Z,87.6
2022-12-13T14:41:05.029Z,87.7
2022-12-13T14:42:19.259Z,87.8
2022-12-13T14:43:33.489Z,87.6
2022-12-13T14:44:47.780Z,87.5
2022-12-13T14:46:02.030Z,87.6
2022-12-13T14:47:16.247Z,87.7
2022-12-13T14:48:30.487Z,87.8
2022-12-13T14:49:44.709Z,87.9
2022-12-13T14:50:59.007Z,87.9
2022-12-13T14:52:13.242Z,88
2022-12-13T14:53:27.483Z,88
2022-12-13T14:54:41.711Z,88.1
2022-12-13T14:55:55.928Z,88.2
2022-12-13T14:57:10.236Z,88.5
2022-12-13T14:58:24.482Z,88.8
2022-12-13T14:59:38.712Z,88.9
2022-12-13T15:00:53.076Z,88.9
2022-12-13T15:02:07.306Z,88.8
2022-12-13T15:03:21.617Z,88.7
2022-12-13T15:04:35.854Z,88.8
2022-12-13T15:05:50.088Z,89.1
2022-12-13T15:07:04.310Z,89.3
2022-12-13T15:08:18.536Z,89.6
2022-12-13T15:09:32.843Z,90
2022-12-13T15:10:47.073Z,90.1
2022-12-13T15:12:01.302Z,90
2022-12-13T15:13:15.533Z,89.8
2022-12-13T15:14:29.751Z,90
2022-12-13T15:15:44.067Z,89.8
2022-12-13T15:16:58.300Z,89.4
2022-12-13T15:18:12.537Z,89.7
2022-12-13T15:19:26.751Z,89.8
2022-12-13T15:20:40.978Z,89.8
2022-12-13T15:21:55.275Z,90
2022-12-13T15:23:09.532Z,90.1
2022-12-13T15:24:23.758Z,90.3
2022-12-13T15:25:37.986Z,90.3
2022-12-13T15:26:52.199Z,90.4
2022-12-13T15:28:06.510Z,90.7
2022-12-13T15:29:20.742Z,90.9
2022-12-13T15:30:34.979Z,91.2
2022-12-13T15:31:49.255Z,91.3
2022-12-13T15:33:02.568Z,91.3
2022-12-13T15:35:31.040Z,90.9
2022-12-13T15:36:45.258Z,91
2022-12-13T15:37:59.475Z,91
2022-12-13T15:39:13.788Z,91
2022-12-13T15:40:28.019Z,91.4
2022-12-13T15:41:42.246Z,91.4
2022-12-13T15:42:56.477Z,91.5
2022-12-13T15:44:10.708Z,91.5
2022-12-13T15:45:25.008Z,91.5
2022-12-13T15:46:39.245Z,91.5
2022-12-13T15:47:53.488Z,91.5
2022-12-13T15:49:07.697Z,91.5
2022-12-13T15:50:21.944Z,91.8
2022-12-13T15:51:36.230Z,92
2022-12-13T15:52:50.486Z,92.1
2022-12-13T15:54:04.755Z,91.5
2022-12-13T15:55:19.046Z,91.6
2022-12-13T15:56:33.396Z,91.7
2022-12-13T15:57:47.645Z,91.7
2022-12-13T15:59:01.861Z,91.9
2022-12-13T16:00:16.091Z,92
2022-12-13T16:01:30.326Z,92
2022-12-13T16:02:44.614Z,92.3
2022-12-13T16:03:59.011Z,92.5
2022-12-13T16:05:12.393Z,92.4
2022-12-13T16:06:26.735Z,92.8
2022-12-13T16:07:41.134Z,92.5
2022-12-13T16:08:55.476Z,92.3
2022-12-13T16:10:08.833Z,92.2
2022-12-13T16:11:23.107Z,92.2
2022-12-13T16:12:37.513Z,92.2
2022-12-13T16:13:51.852Z,92.2
2022-12-13T16:15:06.118Z,92.3
2022-12-13T16:16:20.409Z,92.6
2022-12-13T16:17:34.818Z,92.7
2022-12-13T16:18:49.135Z,92.6
2022-12-13T16:20:03.428Z,92.6
2022-12-13T16:21:17.710Z,92.7
2022-12-13T16:22:32.102Z,92.8
2022-12-13T16:23:46.442Z,93
2022-12-13T16:25:00.722Z,93
2022-12-13T16:26:15.000Z,93
2022-12-13T16:27:29.404Z,92.9
2022-12-13T16:28:43.731Z,93.1
2022-12-13T16:29:58.012Z,93.5
2022-12-13T16:31:12.286Z,93.5
2022-12-13T16:32:26.710Z,93.4
2022-12-13T16:33:41.033Z,93.3
2022-12-13T16:34:55.315Z,93.6
2022-12-13T16:36:09.590Z,93.6
2022-12-13T16:37:23.998Z,93.5
2022-12-13T16:38:38.324Z,93.4
2022-12-13T16:39:52.611Z,93.5
2022-12-13T16:41:06.948Z,93.7
2022-12-13T16:42:21.355Z,93.8
2022-12-13T16:43:35.691Z,93.7
2022-12-13T16:44:50.111Z,93.6
2022-12-13T16:46:04.434Z,93.5
2022-12-13T16:47:18.710Z,93.5
2022-12-13T16:49:47.452Z,93.7
2022-12-13T16:51:01.867Z,93.7
2022-12-13T16:52:16.175Z,93.5
2022-12-13T16:53:30.473Z,92.9
2022-12-13T16:54:44.866Z,92.7
2022-12-13T16:55:59.204Z,92.7
2022-12-13T16:57:13.471Z,92.8
2022-12-13T16:58:27.764Z,92.8
2022-12-13T16:59:42.174Z,92.8
2022-12-13T17:00:56.489Z,92.8
2022-12-13T17:02:10.783Z,92.9
2022-12-13T17:03:25.059Z,93.3
2022-12-13T17:04:39.460Z,93.6
2022-12-13T17:05:53.780Z,93.7
2022-12-13T17:07:08.078Z,93.7
2022-12-13T17:08:22.354Z,93.5